sensor_id;sensor_type;location;lat;lon;timestamp;P1;durP1;ratioP1;P2;durP2;ratioP2
21987;SDS011;11158;53.404;-1.510;2023-05-13T00:02:09;4.60;;;3.88;;
21987;SDS011;11158;53.404;-1.510;2023-05-13T00:04:54;3.95;;;3.50;;
21987;SDS011;11158;53.404;-1.510;2023-05-13T00:07:38;6.55;;;4.18;;
21987;SDS011;11158;53.404;-1.510;2023-05-13T00:10:24;6.45;;;4.88;;
21987;SDS011;11158;53.404;-1.510;2023-05-13T00:13:08;7.18;;;5.10;;
21987;SDS011;11158;53.404;-1.510;2023-05-13T00:15:52;7.10;;;4.28;;
21987;SDS011;11158;53.404;-1.510;2023-05-13T00:18:36;6.07;;;4.90;;
21987;SDS011;11158;53.404;-1.510;2023-05-13T00:21:20;8.18;;;5.68;;
21987;SDS011;11158;53.404;-1.510;2023-05-13T00:24:05;5.93;;;5.32;;
21987;SDS011;11158;53.404;-1.510;2023-05-13T00:26:50;6.80;;;5.40;;
21987;SDS011;11158;53.404;-1.510;2023-05-13T00:29:34;7.32;;;5.05;;
21987;SDS011;11158;53.404;-1.510;2023-05-13T00:32:18;5.70;;;5.20;;
21987;SDS011;11158;53.404;-1.510;2023-05-13T00:35:03;7.22;;;4.80;;
21987;SDS011;11158;53.404;-1.510;2023-05-13T00:37:47;6.38;;;5.78;;
21987;SDS011;11158;53.404;-1.510;2023-05-13T00:40:31;5.60;;;5.10;;
21987;SDS011;11158;53.404;-1.510;2023-05-13T00:43:19;5.95;;;4.70;;
21987;SDS011;11158;53.404;-1.510;2023-05-13T00:46:03;6.25;;;5.00;;
21987;SDS011;11158;53.404;-1.510;2023-05-13T00:48:48;6.47;;;5.40;;
21987;SDS011;11158;53.404;-1.510;2023-05-13T00:51:33;7.75;;;6.15;;
21987;SDS011;11158;53.404;-1.510;2023-05-13T00:54:17;7.57;;;6.07;;
21987;SDS011;11158;53.404;-1.510;2023-05-13T00:57:01;8.68;;;6.05;;
21987;SDS011;11158;53.404;-1.510;2023-05-13T00:59:47;8.38;;;5.65;;
21987;SDS011;11158;53.404;-1.510;2023-05-13T01:08:52;5.00;;;4.57;;
21987;SDS011;11158;53.404;-1.510;2023-05-13T01:11:39;7.28;;;5.60;;
21987;SDS011;11158;53.404;-1.510;2023-05-13T01:14:24;6.60;;;5.47;;
21987;SDS011;11158;53.404;-1.510;2023-05-13T01:17:19;6.90;;;5.97;;
21987;SDS011;11158;53.404;-1.510;2023-05-13T01:20:09;7.85;;;5.95;;
21987;SDS011;11158;53.404;-1.510;2023-05-13T01:22:54;5.80;;;5.10;;
21987;SDS011;11158;53.404;-1.510;2023-05-13T01:25:39;6.28;;;5.28;;
21987;SDS011;11158;53.404;-1.510;2023-05-13T01:28:24;6.68;;;5.72;;
21987;SDS011;11158;53.404;-1.510;2023-05-13T01:31:08;5.53;;;5.03;;
21987;SDS011;11158;53.404;-1.510;2023-05-13T01:33:53;7.47;;;5.57;;
21987;SDS011;11158;53.404;-1.510;2023-05-13T01:36:38;5.63;;;5.07;;
21987;SDS011;11158;53.404;-1.510;2023-05-13T01:39:22;6.13;;;5.40;;
21987;SDS011;11158;53.404;-1.510;2023-05-13T01:42:07;6.10;;;5.07;;
21987;SDS011;11158;53.404;-1.510;2023-05-13T01:44:52;7.18;;;6.57;;
21987;SDS011;11158;53.404;-1.510;2023-05-13T01:47:36;10.23;;;7.47;;
21987;SDS011;11158;53.404;-1.510;2023-05-13T01:50:20;6.50;;;5.90;;
21987;SDS011;11158;53.404;-1.510;2023-05-13T01:53:04;7.03;;;5.50;;
21987;SDS011;11158;53.404;-1.510;2023-05-13T01:55:49;6.05;;;5.50;;
21987;SDS011;11158;53.404;-1.510;2023-05-13T01:58:33;5.25;;;4.60;;
21987;SDS011;11158;53.404;-1.510;2023-05-13T02:01:17;5.95;;;4.55;;
21987;SDS011;11158;53.404;-1.510;2023-05-13T02:04:01;5.70;;;5.18;;
21987;SDS011;11158;53.404;-1.510;2023-05-13T02:06:46;5.57;;;5.03;;
21987;SDS011;11158;53.404;-1.510;2023-05-13T02:09:30;4.90;;;4.45;;
21987;SDS011;11158;53.404;-1.510;2023-05-13T02:12:14;5.50;;;5.00;;
21987;SDS011;11158;53.404;-1.510;2023-05-13T02:14:58;5.65;;;4.40;;
21987;SDS011;11158;53.404;-1.510;2023-05-13T02:17:42;5.22;;;4.70;;
21987;SDS011;11158;53.404;-1.510;2023-05-13T02:20:27;5.43;;;5.00;;
21987;SDS011;11158;53.404;-1.510;2023-05-13T02:23:12;6.38;;;5.35;;
21987;SDS011;11158;53.404;-1.510;2023-05-13T02:25:57;7.07;;;6.38;;
21987;SDS011;11158;53.404;-1.510;2023-05-13T02:28:42;6.15;;;5.55;;
21987;SDS011;11158;53.404;-1.510;2023-05-13T02:31:26;8.57;;;6.40;;
21987;SDS011;11158;53.404;-1.510;2023-05-13T02:34:10;7.05;;;6.18;;
21987;SDS011;11158;53.404;-1.510;2023-05-13T02:36:54;6.70;;;5.55;;
21987;SDS011;11158;53.404;-1.510;2023-05-13T02:39:38;5.85;;;5.35;;
21987;SDS011;11158;53.404;-1.510;2023-05-13T02:42:22;7.40;;;6.70;;
21987;SDS011;11158;53.404;-1.510;2023-05-13T02:45:06;6.35;;;5.78;;
21987;SDS011;11158;53.404;-1.510;2023-05-13T02:47:51;7.47;;;6.32;;
21987;SDS011;11158;53.404;-1.510;2023-05-13T02:50:35;8.10;;;6.90;;
21987;SDS011;11158;53.404;-1.510;2023-05-13T02:53:20;7.70;;;6.32;;
21987;SDS011;11158;53.404;-1.510;2023-05-13T02:56:04;7.60;;;6.47;;
21987;SDS011;11158;53.404;-1.510;2023-05-13T02:58:48;7.93;;;7.22;;
21987;SDS011;11158;53.404;-1.510;2023-05-13T03:01:32;11.18;;;8.80;;
21987;SDS011;11158;53.404;-1.510;2023-05-13T03:04:17;10.32;;;9.38;;
21987;SDS011;11158;53.404;-1.510;2023-05-13T03:07:01;10.50;;;9.50;;
21987;SDS011;11158;53.404;-1.510;2023-05-13T03:09:45;9.80;;;8.90;;
21987;SDS011;11158;53.404;-1.510;2023-05-13T03:12:29;8.45;;;7.63;;
21987;SDS011;11158;53.404;-1.510;2023-05-13T03:15:13;7.03;;;6.40;;
21987;SDS011;11158;53.404;-1.510;2023-05-13T03:17:58;5.78;;;5.25;;
21987;SDS011;11158;53.404;-1.510;2023-05-13T03:20:42;6.47;;;5.70;;
21987;SDS011;11158;53.404;-1.510;2023-05-13T03:23:26;6.88;;;6.25;;
21987;SDS011;11158;53.404;-1.510;2023-05-13T03:26:10;8.90;;;7.60;;
21987;SDS011;11158;53.404;-1.510;2023-05-13T03:28:55;7.25;;;6.55;;
21987;SDS011;11158;53.404;-1.510;2023-05-13T03:31:39;7.13;;;6.03;;
21987;SDS011;11158;53.404;-1.510;2023-05-13T03:34:23;7.07;;;5.63;;
21987;SDS011;11158;53.404;-1.510;2023-05-13T03:37:07;7.38;;;5.25;;
21987;SDS011;11158;53.404;-1.510;2023-05-13T03:39:52;6.72;;;5.82;;
21987;SDS011;11158;53.404;-1.510;2023-05-13T03:42:36;7.53;;;5.18;;
21987;SDS011;11158;53.404;-1.510;2023-05-13T03:45:20;6.53;;;5.40;;
21987;SDS011;11158;53.404;-1.510;2023-05-13T03:48:04;6.60;;;5.60;;
21987;SDS011;11158;53.404;-1.510;2023-05-13T03:50:48;5.22;;;4.72;;
21987;SDS011;11158;53.404;-1.510;2023-05-13T03:53:33;4.90;;;4.40;;
21987;SDS011;11158;53.404;-1.510;2023-05-13T03:56:17;7.45;;;4.00;;
21987;SDS011;11158;53.404;-1.510;2023-05-13T03:59:01;4.78;;;4.25;;
21987;SDS011;11158;53.404;-1.510;2023-05-13T04:01:45;4.82;;;4.40;;
21987;SDS011;11158;53.404;-1.510;2023-05-13T04:04:29;5.20;;;4.68;;
21987;SDS011;11158;53.404;-1.510;2023-05-13T04:07:13;6.82;;;5.10;;
21987;SDS011;11158;53.404;-1.510;2023-05-13T04:09:57;6.63;;;4.80;;
21987;SDS011;11158;53.404;-1.510;2023-05-13T04:12:41;6.47;;;4.63;;
21987;SDS011;11158;53.404;-1.510;2023-05-13T04:15:25;6.00;;;5.10;;
21987;SDS011;11158;53.404;-1.510;2023-05-13T04:18:09;4.70;;;4.30;;
21987;SDS011;11158;53.404;-1.510;2023-05-13T04:20:53;5.45;;;4.95;;
21987;SDS011;11158;53.404;-1.510;2023-05-13T04:23:37;7.05;;;5.43;;
21987;SDS011;11158;53.404;-1.510;2023-05-13T04:26:21;6.10;;;5.50;;
21987;SDS011;11158;53.404;-1.510;2023-05-13T04:29:05;5.80;;;4.82;;
21987;SDS011;11158;53.404;-1.510;2023-05-13T04:31:49;5.22;;;4.70;;
21987;SDS011;11158;53.404;-1.510;2023-05-13T04:34:34;5.22;;;4.68;;
21987;SDS011;11158;53.404;-1.510;2023-05-13T04:37:18;6.03;;;5.47;;
21987;SDS011;11158;53.404;-1.510;2023-05-13T04:40:02;6.22;;;5.35;;
21987;SDS011;11158;53.404;-1.510;2023-05-13T04:42:46;6.00;;;5.50;;
21987;SDS011;11158;53.404;-1.510;2023-05-13T04:45:37;6.20;;;5.50;;
21987;SDS011;11158;53.404;-1.510;2023-05-13T04:48:21;6.43;;;4.85;;
21987;SDS011;11158;53.404;-1.510;2023-05-13T04:51:05;4.70;;;4.30;;
21987;SDS011;11158;53.404;-1.510;2023-05-13T04:53:50;5.00;;;4.38;;
21987;SDS011;11158;53.404;-1.510;2023-05-13T04:56:33;5.38;;;4.25;;
21987;SDS011;11158;53.404;-1.510;2023-05-13T04:59:18;5.45;;;3.90;;
21987;SDS011;11158;53.404;-1.510;2023-05-13T05:02:02;9.40;;;4.00;;
21987;SDS011;11158;53.404;-1.510;2023-05-13T05:04:46;6.53;;;5.82;;
21987;SDS011;11158;53.404;-1.510;2023-05-13T05:07:32;7.50;;;6.72;;
21987;SDS011;11158;53.404;-1.510;2023-05-13T05:10:15;7.25;;;5.72;;
21987;SDS011;11158;53.404;-1.510;2023-05-13T05:13:00;6.00;;;5.03;;
21987;SDS011;11158;53.404;-1.510;2023-05-13T05:15:44;8.07;;;5.72;;
21987;SDS011;11158;53.404;-1.510;2023-05-13T05:18:28;8.00;;;5.95;;
21987;SDS011;11158;53.404;-1.510;2023-05-13T05:21:12;6.18;;;5.15;;
21987;SDS011;11158;53.404;-1.510;2023-05-13T05:23:56;5.57;;;5.00;;
21987;SDS011;11158;53.404;-1.510;2023-05-13T05:26:42;4.50;;;4.10;;
21987;SDS011;11158;53.404;-1.510;2023-05-13T05:29:26;6.40;;;4.25;;
21987;SDS011;11158;53.404;-1.510;2023-05-13T05:32:10;6.40;;;4.00;;
21987;SDS011;11158;53.404;-1.510;2023-05-13T05:34:54;4.80;;;3.83;;
21987;SDS011;11158;53.404;-1.510;2023-05-13T05:37:38;5.15;;;3.90;;
21987;SDS011;11158;53.404;-1.510;2023-05-13T05:40:22;4.35;;;3.88;;
21987;SDS011;11158;53.404;-1.510;2023-05-13T05:43:06;5.40;;;3.60;;
21987;SDS011;11158;53.404;-1.510;2023-05-13T05:45:51;3.55;;;3.08;;
21987;SDS011;11158;53.404;-1.510;2023-05-13T05:48:35;5.18;;;3.38;;
21987;SDS011;11158;53.404;-1.510;2023-05-13T05:51:19;3.95;;;3.55;;
21987;SDS011;11158;53.404;-1.510;2023-05-13T05:54:03;5.20;;;3.03;;
21987;SDS011;11158;53.404;-1.510;2023-05-13T05:56:47;5.68;;;3.60;;
21987;SDS011;11158;53.404;-1.510;2023-05-13T05:59:31;4.05;;;3.60;;
21987;SDS011;11158;53.404;-1.510;2023-05-13T06:02:15;4.60;;;4.20;;
21987;SDS011;11158;53.404;-1.510;2023-05-13T06:04:59;4.32;;;3.92;;
21987;SDS011;11158;53.404;-1.510;2023-05-13T06:07:43;5.38;;;4.65;;
21987;SDS011;11158;53.404;-1.510;2023-05-13T06:10:27;6.75;;;4.57;;
21987;SDS011;11158;53.404;-1.510;2023-05-13T06:13:11;7.35;;;5.50;;
21987;SDS011;11158;53.404;-1.510;2023-05-13T06:15:55;8.73;;;5.50;;
21987;SDS011;11158;53.404;-1.510;2023-05-13T06:18:39;6.80;;;5.43;;
21987;SDS011;11158;53.404;-1.510;2023-05-13T06:21:24;6.63;;;4.95;;
21987;SDS011;11158;53.404;-1.510;2023-05-13T06:24:08;6.80;;;4.75;;
21987;SDS011;11158;53.404;-1.510;2023-05-13T06:26:52;6.78;;;5.35;;
21987;SDS011;11158;53.404;-1.510;2023-05-13T06:29:36;7.18;;;5.90;;
21987;SDS011;11158;53.404;-1.510;2023-05-13T06:32:21;8.40;;;6.10;;
21987;SDS011;11158;53.404;-1.510;2023-05-13T06:35:05;7.28;;;5.80;;
21987;SDS011;11158;53.404;-1.510;2023-05-13T06:37:49;10.27;;;6.57;;
21987;SDS011;11158;53.404;-1.510;2023-05-13T06:40:33;7.78;;;6.13;;
21987;SDS011;11158;53.404;-1.510;2023-05-13T06:43:17;8.55;;;5.47;;
21987;SDS011;11158;53.404;-1.510;2023-05-13T06:46:01;7.15;;;6.05;;
21987;SDS011;11158;53.404;-1.510;2023-05-13T06:48:45;8.45;;;6.10;;
21987;SDS011;11158;53.404;-1.510;2023-05-13T06:51:29;6.97;;;6.15;;
21987;SDS011;11158;53.404;-1.510;2023-05-13T06:54:15;7.65;;;5.43;;
21987;SDS011;11158;53.404;-1.510;2023-05-13T06:56:59;5.80;;;5.30;;
21987;SDS011;11158;53.404;-1.510;2023-05-13T06:59:44;5.47;;;4.97;;
21987;SDS011;11158;53.404;-1.510;2023-05-13T07:02:28;5.25;;;4.78;;
21987;SDS011;11158;53.404;-1.510;2023-05-13T07:05:13;8.50;;;6.35;;
21987;SDS011;11158;53.404;-1.510;2023-05-13T07:07:57;8.30;;;6.13;;
21987;SDS011;11158;53.404;-1.510;2023-05-13T07:10:41;7.65;;;6.85;;
21987;SDS011;11158;53.404;-1.510;2023-05-13T07:13:25;9.38;;;7.30;;
21987;SDS011;11158;53.404;-1.510;2023-05-13T07:16:12;9.07;;;7.03;;
21987;SDS011;11158;53.404;-1.510;2023-05-13T07:18:58;7.30;;;6.60;;
21987;SDS011;11158;53.404;-1.510;2023-05-13T07:21:42;8.55;;;7.70;;
21987;SDS011;11158;53.404;-1.510;2023-05-13T07:24:26;8.55;;;7.75;;
21987;SDS011;11158;53.404;-1.510;2023-05-13T07:27:10;8.77;;;7.97;;
21987;SDS011;11158;53.404;-1.510;2023-05-13T07:29:54;7.80;;;7.00;;
21987;SDS011;11158;53.404;-1.510;2023-05-13T07:32:38;9.43;;;6.60;;
21987;SDS011;11158;53.404;-1.510;2023-05-13T07:35:22;7.75;;;6.68;;
21987;SDS011;11158;53.404;-1.510;2023-05-13T07:38:07;8.77;;;6.13;;
21987;SDS011;11158;53.404;-1.510;2023-05-13T07:40:52;7.05;;;6.35;;
21987;SDS011;11158;53.404;-1.510;2023-05-13T07:43:37;6.95;;;6.25;;
21987;SDS011;11158;53.404;-1.510;2023-05-13T07:46:23;6.70;;;5.90;;
21987;SDS011;11158;53.404;-1.510;2023-05-13T07:49:07;6.72;;;5.75;;
21987;SDS011;11158;53.404;-1.510;2023-05-13T07:51:51;7.30;;;5.15;;
21987;SDS011;11158;53.404;-1.510;2023-05-13T07:54:35;5.10;;;4.50;;
21987;SDS011;11158;53.404;-1.510;2023-05-13T07:57:19;4.45;;;4.05;;
21987;SDS011;11158;53.404;-1.510;2023-05-13T08:00:03;4.53;;;4.13;;
21987;SDS011;11158;53.404;-1.510;2023-05-13T08:02:48;4.25;;;3.85;;
21987;SDS011;11158;53.404;-1.510;2023-05-13T08:05:32;4.72;;;4.00;;
21987;SDS011;11158;53.404;-1.510;2023-05-13T08:08:17;4.60;;;3.40;;
21987;SDS011;11158;53.404;-1.510;2023-05-13T08:11:01;3.13;;;2.92;;
21987;SDS011;11158;53.404;-1.510;2023-05-13T08:13:45;5.10;;;3.17;;
21987;SDS011;11158;53.404;-1.510;2023-05-13T08:16:29;3.95;;;2.70;;
21987;SDS011;11158;53.404;-1.510;2023-05-13T08:19:14;2.60;;;2.40;;
21987;SDS011;11158;53.404;-1.510;2023-05-13T08:21:58;3.83;;;3.45;;
21987;SDS011;11158;53.404;-1.510;2023-05-13T08:24:42;6.53;;;3.63;;
21987;SDS011;11158;53.404;-1.510;2023-05-13T08:27:26;5.72;;;3.65;;
21987;SDS011;11158;53.404;-1.510;2023-05-13T08:30:11;4.15;;;3.33;;
21987;SDS011;11158;53.404;-1.510;2023-05-13T08:32:55;3.47;;;3.15;;
21987;SDS011;11158;53.404;-1.510;2023-05-13T08:35:39;4.05;;;3.30;;
21987;SDS011;11158;53.404;-1.510;2023-05-13T08:38:24;3.75;;;3.30;;
21987;SDS011;11158;53.404;-1.510;2023-05-13T08:41:09;5.50;;;3.72;;
21987;SDS011;11158;53.404;-1.510;2023-05-13T08:43:56;4.22;;;3.20;;
21987;SDS011;11158;53.404;-1.510;2023-05-13T08:46:42;5.32;;;3.28;;
21987;SDS011;11158;53.404;-1.510;2023-05-13T08:49:33;4.78;;;3.15;;
21987;SDS011;11158;53.404;-1.510;2023-05-13T08:52:18;4.55;;;3.13;;
21987;SDS011;11158;53.404;-1.510;2023-05-13T08:55:04;4.38;;;3.97;;
21987;SDS011;11158;53.404;-1.510;2023-05-13T08:57:49;3.60;;;3.30;;
21987;SDS011;11158;53.404;-1.510;2023-05-13T09:00:34;4.40;;;4.00;;
21987;SDS011;11158;53.404;-1.510;2023-05-13T09:03:19;7.05;;;4.93;;
21987;SDS011;11158;53.404;-1.510;2023-05-13T09:06:04;6.53;;;5.05;;
21987;SDS011;11158;53.404;-1.510;2023-05-13T09:08:48;5.43;;;4.93;;
21987;SDS011;11158;53.404;-1.510;2023-05-13T09:11:32;5.70;;;5.13;;
21987;SDS011;11158;53.404;-1.510;2023-05-13T09:14:19;4.40;;;3.70;;
21987;SDS011;11158;53.404;-1.510;2023-05-13T09:17:03;4.68;;;3.72;;
21987;SDS011;11158;53.404;-1.510;2023-05-13T09:19:48;3.95;;;3.15;;
21987;SDS011;11158;53.404;-1.510;2023-05-13T09:22:32;4.97;;;3.95;;
21987;SDS011;11158;53.404;-1.510;2023-05-13T09:25:17;4.75;;;4.22;;
21987;SDS011;11158;53.404;-1.510;2023-05-13T09:28:05;5.90;;;5.30;;
21987;SDS011;11158;53.404;-1.510;2023-05-13T09:30:53;6.50;;;5.45;;
21987;SDS011;11158;53.404;-1.510;2023-05-13T09:33:38;6.05;;;5.55;;
21987;SDS011;11158;53.404;-1.510;2023-05-13T09:36:35;7.57;;;5.60;;
21987;SDS011;11158;53.404;-1.510;2023-05-13T09:39:19;9.43;;;6.07;;
21987;SDS011;11158;53.404;-1.510;2023-05-13T09:42:03;4.60;;;4.20;;
21987;SDS011;11158;53.404;-1.510;2023-05-13T09:44:49;4.80;;;4.07;;
21987;SDS011;11158;53.404;-1.510;2023-05-13T09:47:34;4.03;;;3.63;;
21987;SDS011;11158;53.404;-1.510;2023-05-13T09:50:19;3.97;;;3.03;;
21987;SDS011;11158;53.404;-1.510;2023-05-13T09:53:10;8.85;;;4.63;;
21987;SDS011;11158;53.404;-1.510;2023-05-13T09:55:55;5.68;;;5.28;;
21987;SDS011;11158;53.404;-1.510;2023-05-13T09:58:43;5.50;;;5.00;;
21987;SDS011;11158;53.404;-1.510;2023-05-13T10:01:35;5.45;;;5.05;;
21987;SDS011;11158;53.404;-1.510;2023-05-13T10:04:19;6.63;;;5.50;;
21987;SDS011;11158;53.404;-1.510;2023-05-13T10:07:05;5.90;;;5.13;;
21987;SDS011;11158;53.404;-1.510;2023-05-13T10:09:51;5.95;;;5.35;;
21987;SDS011;11158;53.404;-1.510;2023-05-13T10:12:37;5.75;;;5.25;;
21987;SDS011;11158;53.404;-1.510;2023-05-13T10:15:24;5.80;;;5.30;;
21987;SDS011;11158;53.404;-1.510;2023-05-13T10:18:09;6.07;;;5.57;;
21987;SDS011;11158;53.404;-1.510;2023-05-13T10:20:53;6.05;;;5.32;;
21987;SDS011;11158;53.404;-1.510;2023-05-13T10:23:37;5.43;;;4.90;;
21987;SDS011;11158;53.404;-1.510;2023-05-13T10:26:22;5.85;;;5.15;;
21987;SDS011;11158;53.404;-1.510;2023-05-13T10:29:07;8.88;;;5.65;;
21987;SDS011;11158;53.404;-1.510;2023-05-13T10:31:53;6.88;;;5.30;;
21987;SDS011;11158;53.404;-1.510;2023-05-13T10:34:38;4.95;;;4.45;;
21987;SDS011;11158;53.404;-1.510;2023-05-13T10:37:30;5.72;;;4.32;;
21987;SDS011;11158;53.404;-1.510;2023-05-13T10:43:43;4.80;;;4.40;;
21987;SDS011;11158;53.404;-1.510;2023-05-13T10:46:27;4.90;;;4.05;;
21987;SDS011;11158;53.404;-1.510;2023-05-13T10:49:12;4.30;;;3.90;;
21987;SDS011;11158;53.404;-1.510;2023-05-13T10:52:07;4.50;;;4.10;;
21987;SDS011;11158;53.404;-1.510;2023-05-13T10:55:00;5.40;;;4.50;;
21987;SDS011;11158;53.404;-1.510;2023-05-13T10:58:06;3.92;;;3.63;;
21987;SDS011;11158;53.404;-1.510;2023-05-13T11:00:52;3.50;;;3.20;;
21987;SDS011;11158;53.404;-1.510;2023-05-13T11:03:36;3.53;;;2.97;;
21987;SDS011;11158;53.404;-1.510;2023-05-13T11:06:26;3.83;;;3.13;;
21987;SDS011;11158;53.404;-1.510;2023-05-13T11:12:06;3.75;;;3.42;;
21987;SDS011;11158;53.404;-1.510;2023-05-13T11:14:58;5.30;;;3.63;;
21987;SDS011;11158;53.404;-1.510;2023-05-13T11:17:42;5.80;;;3.40;;
21987;SDS011;11158;53.404;-1.510;2023-05-13T11:20:29;4.95;;;3.45;;
21987;SDS011;11158;53.404;-1.510;2023-05-13T11:23:17;5.15;;;3.70;;
21987;SDS011;11158;53.404;-1.510;2023-05-13T11:26:10;5.25;;;4.03;;
21987;SDS011;11158;53.404;-1.510;2023-05-13T11:29:03;4.90;;;3.85;;
21987;SDS011;11158;53.404;-1.510;2023-05-13T11:34:35;4.47;;;3.88;;
21987;SDS011;11158;53.404;-1.510;2023-05-13T11:37:20;4.03;;;3.72;;
21987;SDS011;11158;53.404;-1.510;2023-05-13T11:40:05;5.93;;;3.45;;
21987;SDS011;11158;53.404;-1.510;2023-05-13T11:42:49;4.28;;;3.97;;
21987;SDS011;11158;53.404;-1.510;2023-05-13T11:45:37;4.40;;;4.00;;
21987;SDS011;11158;53.404;-1.510;2023-05-13T11:48:22;6.75;;;4.20;;
21987;SDS011;11158;53.404;-1.510;2023-05-13T11:51:06;5.28;;;3.78;;
21987;SDS011;11158;53.404;-1.510;2023-05-13T11:53:51;9.75;;;4.40;;
21987;SDS011;11158;53.404;-1.510;2023-05-13T11:56:42;7.63;;;5.00;;
21987;SDS011;11158;53.404;-1.510;2023-05-13T11:59:26;4.72;;;4.13;;
21987;SDS011;11158;53.404;-1.510;2023-05-13T12:02:10;6.13;;;4.68;;
21987;SDS011;11158;53.404;-1.510;2023-05-13T12:04:57;9.55;;;5.22;;
21987;SDS011;11158;53.404;-1.510;2023-05-13T12:07:43;4.65;;;4.15;;
21987;SDS011;11158;53.404;-1.510;2023-05-13T12:10:27;5.53;;;4.63;;
21987;SDS011;11158;53.404;-1.510;2023-05-13T12:13:11;4.97;;;4.57;;
21987;SDS011;11158;53.404;-1.510;2023-05-13T12:15:56;5.20;;;4.70;;
21987;SDS011;11158;53.404;-1.510;2023-05-13T12:18:40;5.82;;;4.70;;
21987;SDS011;11158;53.404;-1.510;2023-05-13T12:21:24;5.22;;;4.72;;
21987;SDS011;11158;53.404;-1.510;2023-05-13T12:24:16;5.13;;;4.63;;
21987;SDS011;11158;53.404;-1.510;2023-05-13T12:27:05;6.88;;;5.00;;
21987;SDS011;11158;53.404;-1.510;2023-05-13T12:29:53;5.07;;;4.57;;
21987;SDS011;11158;53.404;-1.510;2023-05-13T12:32:44;4.55;;;4.25;;
21987;SDS011;11158;53.404;-1.510;2023-05-13T12:35:28;5.75;;;5.25;;
21987;SDS011;11158;53.404;-1.510;2023-05-13T12:38:16;7.28;;;5.20;;
21987;SDS011;11158;53.404;-1.510;2023-05-13T12:41:10;6.45;;;5.03;;
21987;SDS011;11158;53.404;-1.510;2023-05-13T12:43:59;5.45;;;4.40;;
21987;SDS011;11158;53.404;-1.510;2023-05-13T12:46:50;5.40;;;4.85;;
21987;SDS011;11158;53.404;-1.510;2023-05-13T12:49:49;6.38;;;5.10;;
21987;SDS011;11158;53.404;-1.510;2023-05-13T12:52:34;6.63;;;5.22;;
21987;SDS011;11158;53.404;-1.510;2023-05-13T12:55:19;5.70;;;5.13;;
21987;SDS011;11158;53.404;-1.510;2023-05-13T12:58:04;5.35;;;4.85;;
21987;SDS011;11158;53.404;-1.510;2023-05-13T13:00:50;6.55;;;5.68;;
21987;SDS011;11158;53.404;-1.510;2023-05-13T13:03:34;6.65;;;6.05;;
21987;SDS011;11158;53.404;-1.510;2023-05-13T13:06:18;6.95;;;5.40;;
21987;SDS011;11158;53.404;-1.510;2023-05-13T13:09:03;10.65;;;5.55;;
21987;SDS011;11158;53.404;-1.510;2023-05-13T13:11:48;5.72;;;5.18;;
21987;SDS011;11158;53.404;-1.510;2023-05-13T13:14:33;5.03;;;4.60;;
21987;SDS011;11158;53.404;-1.510;2023-05-13T13:17:17;5.50;;;5.00;;
21987;SDS011;11158;53.404;-1.510;2023-05-13T13:20:01;7.47;;;5.05;;
21987;SDS011;11158;53.404;-1.510;2023-05-13T13:22:47;6.40;;;5.85;;
21987;SDS011;11158;53.404;-1.510;2023-05-13T13:25:31;5.35;;;4.93;;
21987;SDS011;11158;53.404;-1.510;2023-05-13T13:28:15;5.47;;;4.97;;
21987;SDS011;11158;53.404;-1.510;2023-05-13T13:30:59;5.47;;;5.05;;
21987;SDS011;11158;53.404;-1.510;2023-05-13T13:33:44;7.85;;;4.95;;
21987;SDS011;11158;53.404;-1.510;2023-05-13T13:36:28;6.57;;;5.25;;
21987;SDS011;11158;53.404;-1.510;2023-05-13T13:39:12;6.43;;;5.32;;
21987;SDS011;11158;53.404;-1.510;2023-05-13T13:41:56;6.07;;;5.35;;
21987;SDS011;11158;53.404;-1.510;2023-05-13T13:44:40;6.63;;;5.63;;
21987;SDS011;11158;53.404;-1.510;2023-05-13T13:47:25;5.22;;;4.82;;
21987;SDS011;11158;53.404;-1.510;2023-05-13T13:50:09;6.85;;;5.20;;
21987;SDS011;11158;53.404;-1.510;2023-05-13T13:52:54;6.53;;;4.22;;
21987;SDS011;11158;53.404;-1.510;2023-05-13T13:55:38;4.93;;;4.43;;
21987;SDS011;11158;53.404;-1.510;2023-05-13T13:58:22;4.72;;;4.32;;
21987;SDS011;11158;53.404;-1.510;2023-05-13T14:01:06;5.70;;;5.20;;
21987;SDS011;11158;53.404;-1.510;2023-05-13T14:03:51;6.50;;;4.93;;
21987;SDS011;11158;53.404;-1.510;2023-05-13T14:06:35;6.38;;;5.43;;
21987;SDS011;11158;53.404;-1.510;2023-05-13T14:09:19;6.07;;;5.47;;
21987;SDS011;11158;53.404;-1.510;2023-05-13T14:12:04;7.97;;;5.82;;
21987;SDS011;11158;53.404;-1.510;2023-05-13T14:14:48;6.30;;;5.70;;
21987;SDS011;11158;53.404;-1.510;2023-05-13T14:17:32;7.70;;;6.15;;
21987;SDS011;11158;53.404;-1.510;2023-05-13T14:20:17;7.18;;;5.65;;
21987;SDS011;11158;53.404;-1.510;2023-05-13T14:23:01;6.20;;;5.60;;
21987;SDS011;11158;53.404;-1.510;2023-05-13T14:25:45;6.93;;;5.53;;
21987;SDS011;11158;53.404;-1.510;2023-05-13T14:28:29;7.00;;;5.85;;
21987;SDS011;11158;53.404;-1.510;2023-05-13T14:31:13;5.70;;;5.20;;
21987;SDS011;11158;53.404;-1.510;2023-05-13T14:33:58;13.82;;;7.93;;
21987;SDS011;11158;53.404;-1.510;2023-05-13T14:36:42;7.70;;;6.00;;
21987;SDS011;11158;53.404;-1.510;2023-05-13T14:39:27;5.57;;;5.07;;
21987;SDS011;11158;53.404;-1.510;2023-05-13T14:42:13;5.22;;;4.45;;
21987;SDS011;11158;53.404;-1.510;2023-05-13T14:44:59;10.82;;;5.00;;
21987;SDS011;11158;53.404;-1.510;2023-05-13T14:47:43;4.78;;;4.38;;
21987;SDS011;11158;53.404;-1.510;2023-05-13T14:50:28;5.68;;;4.53;;
21987;SDS011;11158;53.404;-1.510;2023-05-13T14:53:12;5.30;;;4.80;;
21987;SDS011;11158;53.404;-1.510;2023-05-13T14:55:56;5.07;;;4.60;;
21987;SDS011;11158;53.404;-1.510;2023-05-13T14:58:41;4.72;;;4.30;;
21987;SDS011;11158;53.404;-1.510;2023-05-13T15:01:25;4.43;;;4.03;;
21987;SDS011;11158;53.404;-1.510;2023-05-13T15:04:10;6.28;;;4.40;;
21987;SDS011;11158;53.404;-1.510;2023-05-13T15:06:54;4.68;;;3.80;;
21987;SDS011;11158;53.404;-1.510;2023-05-13T15:09:38;5.45;;;4.18;;
21987;SDS011;11158;53.404;-1.510;2023-05-13T15:12:22;5.38;;;4.15;;
21987;SDS011;11158;53.404;-1.510;2023-05-13T15:15:07;6.07;;;4.85;;
21987;SDS011;11158;53.404;-1.510;2023-05-13T15:17:52;4.45;;;3.67;;
21987;SDS011;11158;53.404;-1.510;2023-05-13T15:20:36;5.00;;;4.50;;
21987;SDS011;11158;53.404;-1.510;2023-05-13T15:23:20;5.07;;;4.57;;
21987;SDS011;11158;53.404;-1.510;2023-05-13T15:26:04;6.10;;;4.40;;
21987;SDS011;11158;53.404;-1.510;2023-05-13T15:28:48;5.57;;;4.28;;
21987;SDS011;11158;53.404;-1.510;2023-05-13T15:31:32;4.80;;;4.15;;
21987;SDS011;11158;53.404;-1.510;2023-05-13T15:34:16;4.95;;;4.00;;
21987;SDS011;11158;53.404;-1.510;2023-05-13T15:37:00;7.45;;;4.93;;
21987;SDS011;11158;53.404;-1.510;2023-05-13T15:39:44;4.82;;;3.97;;
21987;SDS011;11158;53.404;-1.510;2023-05-13T15:42:28;4.72;;;3.97;;
21987;SDS011;11158;53.404;-1.510;2023-05-13T15:45:16;5.43;;;4.00;;
21987;SDS011;11158;53.404;-1.510;2023-05-13T15:48:00;4.63;;;4.22;;
21987;SDS011;11158;53.404;-1.510;2023-05-13T15:50:44;5.28;;;3.83;;
21987;SDS011;11158;53.404;-1.510;2023-05-13T15:53:28;4.00;;;3.60;;
21987;SDS011;11158;53.404;-1.510;2023-05-13T15:56:13;6.38;;;3.60;;
21987;SDS011;11158;53.404;-1.510;2023-05-13T15:58:57;3.67;;;3.38;;
21987;SDS011;11158;53.404;-1.510;2023-05-13T16:01:41;4.00;;;3.65;;
21987;SDS011;11158;53.404;-1.510;2023-05-13T16:04:25;6.88;;;3.85;;
21987;SDS011;11158;53.404;-1.510;2023-05-13T16:07:10;3.97;;;3.58;;
21987;SDS011;11158;53.404;-1.510;2023-05-13T16:09:54;4.10;;;3.70;;
21987;SDS011;11158;53.404;-1.510;2023-05-13T16:12:38;4.05;;;3.35;;
21987;SDS011;11158;53.404;-1.510;2023-05-13T16:15:22;4.45;;;3.63;;
21987;SDS011;11158;53.404;-1.510;2023-05-13T16:18:06;4.75;;;3.67;;
21987;SDS011;11158;53.404;-1.510;2023-05-13T16:20:51;4.57;;;3.80;;
21987;SDS011;11158;53.404;-1.510;2023-05-13T16:23:35;4.88;;;3.85;;
21987;SDS011;11158;53.404;-1.510;2023-05-13T16:26:19;4.72;;;3.85;;
21987;SDS011;11158;53.404;-1.510;2023-05-13T16:29:04;6.32;;;3.50;;
21987;SDS011;11158;53.404;-1.510;2023-05-13T16:31:48;4.55;;;3.85;;
21987;SDS011;11158;53.404;-1.510;2023-05-13T16:34:32;4.50;;;4.10;;